createdAt,value
2024-04-26T00:00:19.533Z,12.38
2024-04-26T00:02:46.997Z,12.38
2024-04-26T00:05:13.870Z,12.39
2024-04-26T00:07:40.447Z,12.41
2024-04-26T00:10:07.670Z,12.43
2024-04-26T00:12:35.064Z,12.45
2024-04-26T00:15:01.825Z,12.47
2024-04-26T00:17:29.262Z,12.51
2024-04-26T00:19:56.092Z,12.55
2024-04-26T00:22:22.639Z,12.56
2024-04-26T00:24:52.090Z,12.55
2024-04-26T00:27:18.784Z,12.56
2024-04-26T00:29:48.752Z,12.57
2024-04-26T00:32:17.650Z,12.59
2024-04-26T00:34:44.388Z,12.59
2024-04-26T00:37:11.128Z,12.58
2024-04-26T00:39:37.882Z,12.58
2024-04-26T00:42:06.225Z,12.57
2024-04-26T00:44:33.000Z,12.56
2024-04-26T00:46:59.603Z,12.56
2024-04-26T00:49:26.557Z,12.57
2024-04-26T00:51:53.525Z,12.57
2024-04-26T00:54:24.660Z,12.58
2024-04-26T00:56:51.672Z,12.58
2024-04-26T00:59:18.520Z,12.56
2024-04-26T01:01:45.146Z,12.55
2024-04-26T01:04:11.995Z,12.55
2024-04-26T01:06:38.633Z,12.54
2024-04-26T01:09:05.360Z,12.52
2024-04-26T01:11:32.251Z,12.49
2024-04-26T01:13:59.064Z,12.48
2024-04-26T01:16:25.668Z,12.48
2024-04-26T01:18:52.651Z,12.47
2024-04-26T01:21:19.590Z,12.46
2024-04-26T01:23:46.274Z,12.46
2024-04-26T01:26:12.928Z,12.44
2024-04-26T01:28:39.657Z,12.43
2024-04-26T01:31:07.066Z,12.42
2024-04-26T01:33:34.225Z,12.41
2024-04-26T01:36:01.449Z,12.41
2024-04-26T01:38:28.820Z,12.37
2024-04-26T01:40:56.025Z,12.34
2024-04-26T01:43:22.725Z,12.32
2024-04-26T01:45:49.472Z,12.28
2024-04-26T01:48:16.305Z,12.25
2024-04-26T01:50:43.027Z,12.23
2024-04-26T01:53:10.036Z,12.22
2024-04-26T01:55:36.972Z,12.20
2024-04-26T01:58:03.783Z,12.20
2024-04-26T02:00:30.586Z,12.21
2024-04-26T02:02:58.175Z,12.21
2024-04-26T02:05:25.121Z,12.21
2024-04-26T02:07:51.811Z,12.21
2024-04-26T02:10:18.778Z,12.24
2024-04-26T02:12:47.686Z,12.25
2024-04-26T02:15:14.359Z,12.25
2024-04-26T02:17:41.234Z,12.23
2024-04-26T02:20:08.544Z,12.22
2024-04-26T02:22:36.233Z,12.22
2024-04-26T02:25:03.238Z,12.21
2024-04-26T02:27:29.942Z,12.20
2024-04-26T02:29:58.071Z,12.20
2024-04-26T02:32:25.168Z,12.21
2024-04-26T02:34:52.210Z,12.20
2024-04-26T02:37:18.975Z,12.19
2024-04-26T02:39:45.683Z,12.18
2024-04-26T02:42:12.395Z,12.19
2024-04-26T02:44:39.183Z,12.18
2024-04-26T02:47:06.317Z,12.19
2024-04-26T02:49:33.096Z,12.17
2024-04-26T02:51:59.684Z,12.16
2024-04-26T02:54:26.402Z,12.16
2024-04-26T02:56:53.240Z,12.16
2024-04-26T02:59:19.855Z,12.19
2024-04-26T03:01:47.763Z,12.20
2024-04-26T03:04:14.519Z,12.20
2024-04-26T03:06:41.939Z,12.19
2024-04-26T03:09:08.950Z,12.18
2024-04-26T03:11:35.920Z,12.16
2024-04-26T03:14:05.404Z,12.18
2024-04-26T03:16:32.192Z,12.18
2024-04-26T03:18:58.998Z,12.18
2024-04-26T03:21:25.770Z,12.17
2024-04-26T03:23:53.592Z,12.13
2024-04-26T03:30:37.276Z,12.03
2024-04-26T03:33:04.376Z,11.99
2024-04-26T03:35:31.358Z,11.97
2024-04-26T03:38:16.627Z,11.95
2024-04-26T03:41:01.890Z,11.90
2024-04-26T03:43:28.535Z,11.87
2024-04-26T03:45:55.223Z,11.84
2024-04-26T03:48:22.202Z,11.77
2024-04-26T03:50:52.220Z,11.74
2024-04-26T03:53:19.180Z,11.73
2024-04-26T03:55:45.851Z,11.69
2024-04-26T03:58:12.728Z,11.64
2024-04-26T04:00:39.515Z,11.61
2024-04-26T04:03:06.314Z,11.60
2024-04-26T04:05:33.187Z,11.57
2024-04-26T04:07:59.967Z,11.50
2024-04-26T04:10:26.883Z,11.41
2024-04-26T04:12:54.045Z,11.34
2024-04-26T04:15:20.969Z,11.32
2024-04-26T04:17:47.808Z,11.28
2024-04-26T04:20:14.761Z,11.25
2024-04-26T04:22:41.506Z,11.23
2024-04-26T04:25:08.196Z,11.19
2024-04-26T04:27:34.975Z,11.13
2024-04-26T04:30:01.829Z,11.10
2024-04-26T04:32:28.900Z,11.07
2024-04-26T04:34:55.810Z,11.03
2024-04-26T04:37:22.562Z,11.00
2024-04-26T04:39:49.451Z,10.98
2024-04-26T04:42:16.254Z,10.94
2024-04-26T04:44:43.035Z,10.90
2024-04-26T04:47:09.790Z,10.88
2024-04-26T04:49:36.442Z,10.88
2024-04-26T04:52:03.183Z,10.91
2024-04-26T04:54:30.246Z,10.93
2024-04-26T04:56:57.034Z,10.94
2024-04-26T04:59:23.843Z,10.95
2024-04-26T05:01:50.525Z,10.96
2024-04-26T05:04:17.290Z,10.96
2024-04-26T05:06:45.002Z,10.98
2024-04-26T05:09:11.885Z,10.97
2024-04-26T05:11:38.872Z,10.96
2024-04-26T05:14:05.835Z,10.97
2024-04-26T05:16:32.736Z,10.98
2024-04-26T05:19:00.468Z,10.94
2024-04-26T05:21:27.444Z,10.90
2024-04-26T05:23:54.207Z,10.91
2024-04-26T05:26:21.108Z,10.91
2024-04-26T05:28:48.072Z,10.89
2024-04-26T05:31:14.696Z,10.85
2024-04-26T05:33:41.548Z,10.83
2024-04-26T05:36:08.523Z,10.84
2024-04-26T05:38:35.774Z,10.83
2024-04-26T05:41:02.414Z,10.84
2024-04-26T05:43:31.211Z,10.86
2024-04-26T05:46:45.870Z,10.88
2024-04-26T05:49:12.769Z,10.84
2024-04-26T05:51:39.602Z,10.82
2024-04-26T05:54:06.370Z,10.82
2024-04-26T05:56:33.236Z,10.82
2024-04-26T05:58:59.944Z,10.79
2024-04-26T06:01:26.556Z,10.81
2024-04-26T06:03:53.337Z,10.85
2024-04-26T06:06:20.310Z,10.90
2024-04-26T06:08:47.167Z,10.96
2024-04-26T06:11:17.026Z,11.00
2024-04-26T06:13:43.781Z,11.05
2024-04-26T06:16:10.447Z,11.09
2024-04-26T06:18:37.503Z,11.11
2024-04-26T06:21:04.566Z,11.08
2024-04-26T06:23:31.588Z,11.07
2024-04-26T06:25:58.319Z,11.05
2024-04-26T06:28:25.048Z,11.02
2024-04-26T06:30:51.709Z,11.02
2024-04-26T06:33:18.619Z,11.01
2024-04-26T06:35:47.141Z,11.04
2024-04-26T06:38:15.319Z,11.11
2024-04-26T06:40:42.164Z,11.14
2024-04-26T06:43:08.967Z,11.15
2024-04-26T06:45:35.718Z,11.18
2024-04-26T06:48:02.636Z,11.22
2024-04-26T06:50:29.814Z,11.25
2024-04-26T06:52:57.535Z,11.29
2024-04-26T06:55:24.528Z,11.31
2024-04-26T06:57:51.307Z,11.33
2024-04-26T07:00:18.059Z,11.36
2024-04-26T07:02:45.388Z,11.38
2024-04-26T07:05:13.096Z,11.41
2024-04-26T07:07:39.865Z,11.43
2024-04-26T07:10:07.262Z,11.46
2024-04-26T07:12:34.432Z,11.48
2024-04-26T07:15:01.191Z,11.50
2024-04-26T07:17:28.235Z,11.51
2024-04-26T07:19:55.259Z,11.51
2024-04-26T07:22:22.035Z,11.50
2024-04-26T07:24:48.846Z,11.48
2024-04-26T07:27:15.703Z,11.49
2024-04-26T07:29:43.037Z,11.50
2024-04-26T07:32:10.038Z,11.51
2024-04-26T07:34:37.005Z,11.55
2024-04-26T07:37:03.823Z,11.58
2024-04-26T07:39:30.612Z,11.59
2024-04-26T07:41:57.606Z,11.62
2024-04-26T07:44:24.358Z,11.67
2024-04-26T07:46:51.295Z,11.68
2024-04-26T07:49:18.373Z,11.71
2024-04-26T07:51:45.341Z,11.74
2024-04-26T07:54:12.226Z,11.77
2024-04-26T07:56:39.973Z,11.82
2024-04-26T07:59:06.819Z,11.88
2024-04-26T08:01:33.604Z,11.96
2024-04-26T08:04:00.767Z,12.07
2024-04-26T08:06:28.074Z,12.18
2024-04-26T08:08:55.062Z,12.29
2024-04-26T08:11:22.138Z,12.40
2024-04-26T08:13:49.145Z,12.45
2024-04-26T08:16:16.203Z,12.49
2024-04-26T08:18:43.243Z,12.51
2024-04-26T08:21:10.315Z,12.51
2024-04-26T08:23:37.451Z,12.51
2024-04-26T08:26:04.933Z,12.53
2024-04-26T08:28:32.773Z,12.61
2024-04-26T08:30:59.773Z,12.69
2024-04-26T08:33:26.970Z,12.72
2024-04-26T08:35:54.551Z,12.76
2024-04-26T08:38:21.600Z,12.79
2024-04-26T08:40:48.362Z,12.83
2024-04-26T08:43:15.065Z,12.83
2024-04-26T08:45:42.008Z,12.82
2024-04-26T08:48:09.316Z,12.80
2024-04-26T08:50:37.474Z,12.79
2024-04-26T08:53:07.705Z,12.79
2024-04-26T08:55:36.027Z,12.80
2024-04-26T08:58:03.880Z,12.85
2024-04-26T09:00:34.859Z,12.89
2024-04-26T09:03:01.980Z,12.89
2024-04-26T09:05:30.544Z,12.90
2024-04-26T09:07:59.582Z,12.92
2024-04-26T09:10:26.728Z,12.96
2024-04-26T09:13:01.304Z,13.01
2024-04-26T09:15:31.560Z,13.06
2024-04-26T09:17:59.254Z,13.14
2024-04-26T09:20:26.314Z,13.23
2024-04-26T09:22:53.293Z,13.33
2024-04-26T09:25:20.285Z,13.38
2024-04-26T09:27:47.023Z,13.39
2024-04-26T09:30:14.246Z,13.35
2024-04-26T09:32:50.575Z,13.32
2024-04-26T09:35:22.901Z,13.33
2024-04-26T09:37:51.059Z,13.31
2024-04-26T09:40:17.818Z,13.28
2024-04-26T09:42:45.862Z,13.23
2024-04-26T09:45:13.036Z,13.21
2024-04-26T09:47:40.188Z,13.22
2024-04-26T09:50:07.202Z,13.23
2024-04-26T09:52:34.633Z,13.24
2024-04-26T09:55:01.347Z,13.28
2024-04-26T09:57:28.240Z,13.33
2024-04-26T09:59:55.696Z,13.38
2024-04-26T10:02:22.782Z,13.44
2024-04-26T10:04:54.039Z,13.50
2024-04-26T10:07:24.540Z,13.59
2024-04-26T10:09:55.096Z,13.66
2024-04-26T10:12:27.111Z,13.70
2024-04-26T10:14:53.986Z,13.72
2024-04-26T10:17:21.434Z,13.73
2024-04-26T10:19:50.013Z,13.75
2024-04-26T10:22:16.978Z,13.80
2024-04-26T10:24:53.859Z,13.84
2024-04-26T10:27:28.287Z,13.92
2024-04-26T10:29:55.638Z,13.98
2024-04-26T10:32:22.392Z,14.02
2024-04-26T10:34:49.317Z,14.06
2024-04-26T10:37:16.650Z,14.06
2024-04-26T10:39:45.622Z,14.03
2024-04-26T10:42:13.640Z,14.01
2024-04-26T10:44:40.902Z,14.01
2024-04-26T10:47:07.649Z,13.99
2024-04-26T10:49:34.742Z,13.97
2024-04-26T10:52:02.538Z,13.97
2024-04-26T10:54:30.494Z,14.03
2024-04-26T10:56:57.978Z,14.12
2024-04-26T10:59:27.128Z,14.21
2024-04-26T11:01:56.086Z,14.28
2024-04-26T11:04:23.130Z,14.33
2024-04-26T11:06:53.091Z,14.40
2024-04-26T11:09:20.882Z,14.45
2024-04-26T11:11:56.291Z,14.45
2024-04-26T11:14:25.129Z,14.40
2024-04-26T11:16:51.855Z,14.35
2024-04-26T11:19:31.847Z,14.33
2024-04-26T11:21:59.537Z,14.31
2024-04-26T11:24:26.844Z,14.31
2024-04-26T11:26:53.998Z,14.31
2024-04-26T11:29:21.052Z,14.35
2024-04-26T11:31:47.836Z,14.38
2024-04-26T11:34:15.064Z,14.40
2024-04-26T11:36:45.529Z,14.41
2024-04-26T11:39:12.260Z,14.45
2024-04-26T11:41:39.242Z,14.49
2024-04-26T11:44:06.076Z,14.49
2024-04-26T11:46:32.900Z,14.47
2024-04-26T11:48:59.825Z,14.44
2024-04-26T11:51:26.989Z,14.43
2024-04-26T11:53:57.296Z,14.46
2024-04-26T11:56:24.271Z,14.44
2024-04-26T11:58:52.128Z,14.44
2024-04-26T12:01:18.952Z,14.43
2024-04-26T12:03:46.157Z,14.41
2024-04-26T12:06:13.641Z,14.40
2024-04-26T12:08:45.995Z,14.42
2024-04-26T12:11:17.311Z,14.45
2024-04-26T12:13:46.497Z,14.49
2024-04-26T12:16:17.101Z,14.51
2024-04-26T12:18:44.648Z,14.51
2024-04-26T12:21:18.446Z,14.46
2024-04-26T12:23:45.682Z,14.38
2024-04-26T12:26:25.618Z,14.31
2024-04-26T12:28:53.755Z,14.26
2024-04-26T12:31:21.167Z,14.23
2024-04-26T12:33:48.756Z,14.19
2024-04-26T12:36:16.028Z,14.15
2024-04-26T12:38:43.726Z,14.14
2024-04-26T12:41:10.510Z,14.15
2024-04-26T12:43:37.475Z,14.16
2024-04-26T12:46:04.566Z,14.17
2024-04-26T12:48:32.217Z,14.19
2024-04-26T12:50:59.318Z,14.20
2024-04-26T12:53:28.333Z,14.18
2024-04-26T12:55:55.193Z,14.14
2024-04-26T12:58:22.125Z,14.08
2024-04-26T13:00:49.523Z,14.01
2024-04-26T13:03:17.863Z,13.94
2024-04-26T13:05:45.326Z,13.89
2024-04-26T13:08:12.183Z,13.88
2024-04-26T13:10:39.213Z,13.87
2024-04-26T13:13:06.491Z,13.88
2024-04-26T13:15:33.261Z,13.87
2024-04-26T13:18:00.387Z,13.85
2024-04-26T13:20:27.727Z,13.81
2024-04-26T13:22:54.529Z,13.75
2024-04-26T13:25:21.315Z,13.65
2024-04-26T13:27:48.429Z,13.58
2024-04-26T13:30:15.425Z,13.56
2024-04-26T13:32:42.636Z,13.57
2024-04-26T13:35:09.858Z,13.59
2024-04-26T13:37:36.726Z,13.62
2024-04-26T13:40:03.821Z,13.63
2024-04-26T13:42:31.236Z,13.64
2024-04-26T13:44:58.514Z,13.63
2024-04-26T13:47:25.526Z,13.60
2024-04-26T13:49:52.685Z,13.54
2024-04-26T13:52:19.995Z,13.50
2024-04-26T13:54:47.009Z,13.46
2024-04-26T13:57:17.593Z,13.44
2024-04-26T13:59:46.232Z,13.47
2024-04-26T14:02:13.256Z,13.48
2024-04-26T14:04:44.250Z,13.49
2024-04-26T14:07:13.538Z,13.50
2024-04-26T14:09:42.845Z,13.47
2024-04-26T14:12:10.134Z,13.45
2024-04-26T14:14:38.722Z,13.41
2024-04-26T14:17:05.665Z,13.37
2024-04-26T14:19:35.813Z,13.32
2024-04-26T14:22:03.540Z,13.29
2024-04-26T14:24:30.653Z,13.28
2024-04-26T14:26:57.416Z,13.28
2024-04-26T14:29:37.298Z,13.26
2024-04-26T14:32:08.915Z,13.24
2024-04-26T14:34:35.856Z,13.23
2024-04-26T14:37:02.770Z,13.22
2024-04-26T14:39:33.249Z,13.20
2024-04-26T14:42:00.232Z,13.18
2024-04-26T14:44:26.918Z,13.16
2024-04-26T14:46:53.860Z,13.12
2024-04-26T14:49:20.586Z,13.08
2024-04-26T14:51:47.257Z,13.08
2024-04-26T14:54:14.532Z,13.08
2024-04-26T14:56:41.206Z,13.10
2024-04-26T14:59:07.905Z,13.12
2024-04-26T15:01:36.785Z,13.13
2024-04-26T15:04:03.623Z,13.14
2024-04-26T15:06:31.876Z,13.16
2024-04-26T15:08:59.459Z,13.16
2024-04-26T15:11:29.655Z,13.16
2024-04-26T15:13:56.668Z,13.14
2024-04-26T15:16:23.668Z,13.10
2024-04-26T15:18:50.469Z,13.04
2024-04-26T15:21:17.224Z,13.01
2024-04-26T15:23:44.217Z,12.97
2024-04-26T15:26:11.078Z,12.95
2024-04-26T15:28:37.922Z,12.93
2024-04-26T15:31:05.300Z,12.93
2024-04-26T15:33:32.065Z,12.93
2024-04-26T15:35:58.858Z,12.91
2024-04-26T15:38:25.815Z,12.88
2024-04-26T15:40:52.919Z,12.84
2024-04-26T15:43:21.645Z,12.81
2024-04-26T15:45:48.680Z,12.79
2024-04-26T15:48:15.572Z,12.79
2024-04-26T15:50:42.471Z,12.79
2024-04-26T15:53:09.327Z,12.82
2024-04-26T15:55:36.126Z,12.84
2024-04-26T15:58:03.283Z,12.88
2024-04-26T16:00:30.418Z,12.92
2024-04-26T16:02:57.202Z,12.93
2024-04-26T16:05:24.312Z,12.91
2024-04-26T16:07:53.273Z,12.90
2024-04-26T16:10:20.398Z,12.89
2024-04-26T16:12:47.346Z,12.86
2024-04-26T16:15:14.560Z,12.84
2024-04-26T16:17:43.153Z,12.83
2024-04-26T16:20:10.325Z,12.84
2024-04-26T16:22:37.175Z,12.83
2024-04-26T16:25:04.439Z,12.84
2024-04-26T16:27:31.384Z,12.85
2024-04-26T16:29:58.887Z,12.84
2024-04-26T16:32:30.431Z,12.80
2024-04-26T16:34:57.367Z,12.74
2024-04-26T16:37:24.257Z,12.70
2024-04-26T16:39:51.348Z,12.67
2024-04-26T16:42:18.065Z,12.65
2024-04-26T16:44:44.895Z,12.60
2024-04-26T16:47:11.753Z,12.56
2024-04-26T16:49:38.697Z,12.55
2024-04-26T16:52:05.953Z,12.55
2024-04-26T16:54:32.897Z,12.55
2024-04-26T16:56:59.542Z,12.54
2024-04-26T16:59:26.296Z,12.50
2024-04-26T17:01:52.970Z,12.48
2024-04-26T17:04:19.732Z,12.46
2024-04-26T17:06:46.587Z,12.46
2024-04-26T17:09:13.259Z,12.48
2024-04-26T17:11:43.607Z,12.50
2024-04-26T17:14:10.492Z,12.53
2024-04-26T17:16:38.083Z,12.56
2024-04-26T17:19:04.731Z,12.57
2024-04-26T17:21:31.717Z,12.59
2024-04-26T17:23:58.752Z,12.59
2024-04-26T17:26:25.431Z,12.57
2024-04-26T17:28:52.232Z,12.56
2024-04-26T17:31:19.152Z,12.54
2024-04-26T17:33:49.110Z,12.51
2024-04-26T17:36:17.512Z,12.47
2024-04-26T17:38:50.154Z,12.44
2024-04-26T17:41:19.542Z,12.43
2024-04-26T17:43:46.380Z,12.44
2024-04-26T17:46:13.288Z,12.48
2024-04-26T17:48:40.490Z,12.50
2024-04-26T17:51:08.494Z,12.53
2024-04-26T17:53:35.218Z,12.55
2024-04-26T17:56:02.083Z,12.55
2024-04-26T17:58:32.131Z,12.54
2024-04-26T18:03:42.584Z,12.49
2024-04-26T18:06:10.185Z,12.43
2024-04-26T18:08:39.444Z,12.39
2024-04-26T18:11:06.366Z,12.39
2024-04-26T18:13:33.324Z,12.41
2024-04-26T18:16:00.150Z,12.44
2024-04-26T18:18:27.259Z,12.47
2024-04-26T18:20:54.028Z,12.48
2024-04-26T18:23:20.677Z,12.48
2024-04-26T18:25:47.355Z,12.46
2024-04-26T18:28:14.071Z,12.42
2024-04-26T18:30:43.522Z,12.35
2024-04-26T18:33:13.918Z,12.31
2024-04-26T18:35:41.782Z,12.28
2024-04-26T18:38:08.469Z,12.26
2024-04-26T18:40:35.314Z,12.27
2024-04-26T18:43:02.009Z,12.27
2024-04-26T18:45:28.755Z,12.28
2024-04-26T18:47:55.637Z,12.29
2024-04-26T18:50:22.464Z,12.30
2024-04-26T18:52:49.675Z,12.29
2024-04-26T18:55:16.337Z,12.27
2024-04-26T18:57:43.148Z,12.24
2024-04-26T19:00:10.635Z,12.22
2024-04-26T19:02:37.522Z,12.21
2024-04-26T19:05:04.775Z,12.21
2024-04-26T19:07:32.343Z,12.21
2024-04-26T19:09:59.237Z,12.21
2024-04-26T19:12:25.954Z,12.21
2024-04-26T19:14:52.686Z,12.22
2024-04-26T19:17:19.470Z,12.21
2024-04-26T19:19:46.728Z,12.20
2024-04-26T19:22:13.522Z,12.17
2024-04-26T19:24:40.482Z,12.12
2024-04-26T19:27:07.206Z,12.08
2024-04-26T19:29:37.689Z,12.04
2024-04-26T19:32:05.374Z,12.01
2024-04-26T19:34:32.321Z,11.99
2024-04-26T19:36:59.123Z,11.99
2024-04-26T19:39:25.784Z,12.00
2024-04-26T19:41:52.468Z,12.01
2024-04-26T19:44:20.664Z,11.98
2024-04-26T19:46:47.497Z,11.95
2024-04-26T19:49:19.935Z,11.93
2024-04-26T19:51:52.679Z,11.92
2024-04-26T19:54:58.155Z,11.91
2024-04-26T19:57:26.169Z,11.89
2024-04-26T19:59:52.887Z,11.89
2024-04-26T20:02:19.596Z,11.90
2024-04-26T20:04:46.401Z,11.93
2024-04-26T20:07:13.139Z,11.95
2024-04-26T20:09:40.824Z,11.97
2024-04-26T20:12:07.726Z,11.95
2024-04-26T20:14:35.394Z,11.94
2024-04-26T20:17:02.736Z,11.91
2024-04-26T20:19:29.997Z,11.87
2024-04-26T20:21:56.717Z,11.83
2024-04-26T20:24:23.306Z,11.80
2024-04-26T20:26:50.127Z,11.78
2024-04-26T20:29:16.782Z,11.78
2024-04-26T20:31:43.466Z,11.80
2024-04-26T20:34:10.332Z,11.83
2024-04-26T20:36:39.267Z,11.84
2024-04-26T20:39:06.011Z,11.85
2024-04-26T20:41:32.642Z,11.83
2024-04-26T20:43:59.454Z,11.80
2024-04-26T20:46:26.381Z,11.78
2024-04-26T20:48:53.063Z,11.77
2024-04-26T20:51:19.722Z,11.75
2024-04-26T20:53:46.415Z,11.75
2024-04-26T20:56:21.179Z,11.76
2024-04-26T20:58:55.951Z,11.78
2024-04-26T21:01:25.822Z,11.80
2024-04-26T21:03:54.069Z,11.81
2024-04-26T21:06:23.804Z,11.79
2024-04-26T21:08:50.523Z,11.77
2024-04-26T21:11:20.216Z,11.75
2024-04-26T21:13:50.071Z,11.72
2024-04-26T21:16:16.837Z,11.68
2024-04-26T21:18:47.244Z,11.67
2024-04-26T21:21:14.629Z,11.67
2024-04-26T21:23:41.552Z,11.68
2024-04-26T21:26:08.310Z,11.69
2024-04-26T21:28:35.155Z,11.70
2024-04-26T21:31:01.886Z,11.71
2024-04-26T21:33:28.766Z,11.72
2024-04-26T21:35:55.576Z,11.72
2024-04-26T21:38:22.302Z,11.71
2024-04-26T21:40:49.234Z,11.68
2024-04-26T21:43:16.065Z,11.67
2024-04-26T21:45:43.836Z,11.65
2024-04-26T21:48:13.631Z,11.63
2024-04-26T21:50:40.566Z,11.62
2024-04-26T21:53:07.351Z,11.62
2024-04-26T21:55:34.046Z,11.63
2024-04-26T21:58:00.780Z,11.63
2024-04-26T22:00:27.449Z,11.62
2024-04-26T22:02:54.096Z,11.59
2024-04-26T22:05:24.868Z,11.55
2024-04-26T22:07:51.955Z,11.52
2024-04-26T22:10:20.762Z,11.51
2024-04-26T22:12:48.382Z,11.50
2024-04-26T22:15:15.249Z,11.51
2024-04-26T22:17:45.233Z,11.51
2024-04-26T22:20:12.941Z,11.52
2024-04-26T22:22:40.411Z,11.53
2024-04-26T22:25:07.428Z,11.53
2024-04-26T22:27:34.241Z,11.51
2024-04-26T22:30:01.260Z,11.49
2024-04-26T22:32:29.094Z,11.47
2024-04-26T22:34:59.616Z,11.45
2024-04-26T22:37:26.994Z,11.44
2024-04-26T22:39:53.686Z,11.45
2024-04-26T22:42:20.851Z,11.47
2024-04-26T22:44:47.847Z,11.49
2024-04-26T22:47:14.511Z,11.51
2024-04-26T22:49:41.149Z,11.52
2024-04-26T22:52:08.056Z,11.50
2024-04-26T22:54:34.971Z,11.49
2024-04-26T22:57:01.577Z,11.48
2024-04-26T22:59:28.618Z,11.45
2024-04-26T23:01:55.411Z,11.43
2024-04-26T23:04:22.103Z,11.42
2024-04-26T23:06:49.510Z,11.42
2024-04-26T23:09:16.148Z,11.42
2024-04-26T23:11:43.283Z,11.43
2024-04-26T23:14:10.348Z,11.44
2024-04-26T23:16:37.060Z,11.44
2024-04-26T23:19:04.067Z,11.43
2024-04-26T23:21:32.980Z,11.42
2024-04-26T23:23:59.556Z,11.42
2024-04-26T23:26:26.326Z,11.41
2024-04-26T23:28:53.423Z,11.40
2024-04-26T23:31:20.117Z,11.41
2024-04-26T23:33:47.151Z,11.42
2024-04-26T23:36:13.875Z,11.42
2024-04-26T23:38:41.526Z,11.43
2024-04-26T23:41:08.519Z,11.46
2024-04-26T23:43:35.838Z,11.46
2024-04-26T23:46:02.557Z,11.45
2024-04-26T23:48:29.506Z,11.43
2024-04-26T23:50:56.981Z,11.41
2024-04-26T23:53:23.574Z,11.40
2024-04-26T23:55:50.486Z,11.38
2024-04-26T23:58:17.582Z,11.40
